Seaspan Chiwan — VRBH3 — position and weather

sailwx.info

Track history (hours):
 
Tides and Currents Weather Stations Pressure Air Temp Water Temp Dewpoint Dewpoint Depression Visibility Wind Speed Wind Dir Waves Ship Positions

Seaspan Chiwan

Last reported at 2017-Aug-18 07:08 UTC. Time now 2017-Aug-18 20:17 UTC.
Position N 34°45' E 119°26'.

Length 260 m; draft 8.1 m.

Type: Cargo ship. MMSI: 477014500.

Date/timePositionNaut miles runAvg speedWind from/ knotsBaromVisibWave heightAir tempDewpointWater temp
2017-Aug-18 07:08N 34°45' E 119°26'0 0.3
2017-Aug-18 06:59N 34°45' E 119°26'0 0.0
2017-Aug-18 06:30N 34°45' E 119°26'0 0.1
2017-Aug-18 06:00N 34°45' E 119°26'0 0.0
2017-Aug-18 05:29N 34°45' E 119°26'0 0.0
2017-Aug-18 04:57N 34°45' E 119°26'0 0.0
2017-Aug-18 03:45N 34°45' E 119°26'0 1.5
2017-Aug-18 03:30N 34°45' E 119°26'4 8.2
2017-Aug-18 03:00N 34°44' E 119°31'610.7
2017-Aug-18 02:27N 34°47' E 119°37'3 6.8
2017-Aug-18 01:58N 34°49' E 119°40'3 5.3
2017-Aug-18 01:30N 34°50' E 119°43'4 8.9
2017-Aug-18 01:00N 34°52' E 119°48'1 1.8
2017-Aug-18 00:27N 34°53' E 119°48'0 0.1
2017-Aug-17 23:57N 34°53' E 119°48'0 0.0
2017-Aug-17 23:27N 34°53' E 119°48'0 0.0
2017-Aug-17 21:09N 34°53' E 119°48'0 0.0
2017-Aug-17 20:33N 34°53' E 119°48'0 0.1
2017-Aug-17 20:27N 34°53' E 119°48'0 0.0
2017-Aug-17 19:57N 34°53' E 119°48'0 0.0
2017-Aug-17 19:27N 34°53' E 119°48'0 0.0
2017-Aug-17 12:00N 34°53' E 119°48'2 2.9
2017-Aug-17 11:18N 34°54' E 119°51'412.4
2017-Aug-17 11:00N 34°56' E 119°55'1112.1
2017-Aug-17 10:04N 35°00' E 120°07'211.9
2017-Aug-17 09:56N 35°01' E 120°09'611.8
2017-Aug-17 09:26N 35°04' E 120°15'512.4
2017-Aug-17 09:00N 35°06' E 120°21'  
2017-Aug-13 19:09N 29°50' E 122°47'819.2
2017-Aug-13 18:44N 29°45' E 122°40'519.4
2017-Aug-13 18:30N 29°42' E 122°36'917.4
2017-Aug-13 18:00N 29°42' E 122°26'816.6
2017-Aug-13 17:30N 29°46' E 122°18'510.1
2017-Aug-13 17:00N 29°49' E 122°14'713.8
2017-Aug-13 16:30N 29°55' E 122°09'5 9.8
2017-Aug-13 16:00N 29°53' E 122°04'0 0.2
2017-Aug-13 15:30N 29°53' E 122°04'0 0.0
2017-Aug-13 15:00N 29°53' E 122°04'0 0.0
2017-Aug-13 14:30N 29°53' E 122°04'0 0.0
2017-Aug-13 13:48N 29°53' E 122°04'0 0.0
2017-Aug-13 13:18N 29°53' E 122°04'0 0.0
2017-Aug-13 12:18N 29°53' E 122°04'0 0.0
2017-Aug-13 11:57N 29°53' E 122°04'0 0.0
2017-Aug-13 11:24N 29°53' E 122°04'0 0.0
2017-Aug-13 11:00N 29°53' E 122°04'0 0.0
2017-Aug-13 10:12N 29°53' E 122°04'0 0.0
2017-Aug-13 09:54N 29°53' E 122°04'0 0.0
2017-Aug-13 09:27N 29°53' E 122°04'0 0.0
2017-Aug-13 09:00N 29°53' E 122°04'0 0.0
2017-Aug-13 08:24N 29°53' E 122°04'0 0.0
2017-Aug-13 07:57N 29°53' E 122°04'0 0.0
2017-Aug-13 07:30N 29°53' E 122°04'0 0.0
2017-Aug-13 06:48N 29°53' E 122°04'0 0.0
2017-Aug-13 06:30N 29°53' E 122°04'0 0.0
2017-Aug-13 06:00N 29°53' E 122°04'0 0.0
2017-Aug-13 04:24N 29°53' E 122°04'0 0.0
2017-Aug-13 04:00N 29°53' E 122°04'0 0.0
2017-Aug-13 03:29N 29°53' E 122°04'0 0.0
2017-Aug-13 03:00N 29°53' E 122°04'0 0.0
2017-Aug-13 02:30N 29°53' E 122°04'0 0.0
2017-Aug-13 02:01N 29°53' E 122°04'1 1.9
2017-Aug-13 01:30N 29°54' E 122°04'611.7
2017-Aug-13 01:00N 29°55' E 122°10'713.5
2017-Aug-13 00:30N 29°49' E 122°14'5 9.9
2017-Aug-12 23:59N 29°46' E 122°18'510.5
2017-Aug-12 23:30N 29°44' E 122°24'713.2
2017-Aug-12 22:59N 29°42' E 122°31'5814.6
2017-Aug-12 19:00N 30°24' E 123°18'816.6
2017-Aug-12 18:30N 30°31' E 123°21'915.9
2017-Aug-12 17:56N 30°41' E 123°21'1215.6
2017-Aug-12 17:10N 30°52' E 123°20'416.3
2017-Aug-12 16:56N 30°56' E 123°20'29314.3
2017-Aug-11 20:28N 34°57' E 120°01'32 5.8
2017-Aug-11 14:59N 34°45' E 119°26'0 0.1
2017-Aug-11 14:30N 34°45' E 119°26'0 0.0
2017-Aug-11 13:30N 34°45' E 119°26'0 0.0
2017-Aug-11 13:00N 34°45' E 119°26'0 0.1
2017-Aug-11 12:30N 34°45' E 119°26'0 0.0
2017-Aug-11 11:59N 34°45' E 119°26'0 0.1
2017-Aug-11 11:29N 34°45' E 119°26'0 0.1
2017-Aug-11 11:00N 34°45' E 119°26'0 0.1
2017-Aug-11 10:29N 34°45' E 119°26'0 0.0
2017-Aug-11 10:00N 34°45' E 119°26'0 0.0
2017-Aug-11 09:30N 34°45' E 119°26'0 0.1
2017-Aug-11 09:00N 34°45' E 119°26'0 0.0
2017-Aug-11 08:30N 34°45' E 119°26'1 2.1
2017-Aug-11 07:57N 34°45' E 119°27'4 8.6
2017-Aug-11 07:30N 34°45' E 119°32'510.2
2017-Aug-11 07:00N 34°47' E 119°37'4 8.5
2017-Aug-11 06:30N 34°49' E 119°41'712.9
2017-Aug-11 06:00N 34°53' E 119°48'2 2.6
2017-Aug-11 05:04N 34°54' E 119°50'0 0.1
2017-Aug-11 02:52N 34°54' E 119°50'0 0.0
2017-Aug-11 02:28N 34°54' E 119°50'0 0.1
2017-Aug-11 00:17N 34°54' E 119°50'0 0.2
2017-Aug-10 23:59N 34°54' E 119°50'0 0.1
2017-Aug-10 23:29N 34°54' E 119°50'0 0.0
2017-Aug-10 22:59N 34°54' E 119°50'0 0.1
2017-Aug-10 21:05N 34°54' E 119°50'0 0.1
2017-Aug-10 20:59N 34°54' E 119°50'0 0.5
2017-Aug-10 20:04N 34°55' E 119°50'110.3
2017-Aug-10 20:00N 34°55' E 119°51'612.6
2017-Aug-10 19:30N 34°56' E 119°58'912.4
2017-Aug-10 18:46N 35°01' E 120°08'912.0
2017-Aug-10 18:02N 35°05' E 120°17'010.6
2017-Aug-10 18:00N 35°05' E 120°18'  
Track history (hours):
 
Tides and Currents Weather Stations Pressure Air Temp Water Temp Dewpoint Dewpoint Depression Visibility Wind Speed Wind Dir Waves Ship Positions

Seaspan Chiwan

Last reported at 2017-Aug-18 07:08 UTC. Time now 2017-Aug-18 20:17 UTC.
Position N 34°45' E 119°26'.

Length 260 m; draft 8.1 m.

Type: Cargo ship. MMSI: 477014500.

Date/timePositionNaut miles runAvg speedWind from/ knotsBaromVisibWave heightAir tempDewpointWater temp
2017-Aug-18 07:08N 34°45' E 119°26'0 0.3
2017-Aug-18 06:59N 34°45' E 119°26'0 0.0
2017-Aug-18 06:30N 34°45' E 119°26'0 0.1
2017-Aug-18 06:00N 34°45' E 119°26'0 0.0
2017-Aug-18 05:29N 34°45' E 119°26'0 0.0
2017-Aug-18 04:57N 34°45' E 119°26'0 0.0
2017-Aug-18 03:45N 34°45' E 119°26'0 1.5
2017-Aug-18 03:30N 34°45' E 119°26'4 8.2
2017-Aug-18 03:00N 34°44' E 119°31'610.7
2017-Aug-18 02:27N 34°47' E 119°37'3 6.8
2017-Aug-18 01:58N 34°49' E 119°40'3 5.3
2017-Aug-18 01:30N 34°50' E 119°43'4 8.9
2017-Aug-18 01:00N 34°52' E 119°48'1 1.8
2017-Aug-18 00:27N 34°53' E 119°48'0 0.1
2017-Aug-17 23:57N 34°53' E 119°48'0 0.0
2017-Aug-17 23:27N 34°53' E 119°48'0 0.0
2017-Aug-17 21:09N 34°53' E 119°48'0 0.0
2017-Aug-17 20:33N 34°53' E 119°48'0 0.1
2017-Aug-17 20:27N 34°53' E 119°48'0 0.0
2017-Aug-17 19:57N 34°53' E 119°48'0 0.0
2017-Aug-17 19:27N 34°53' E 119°48'0 0.0
2017-Aug-17 12:00N 34°53' E 119°48'2 2.9
2017-Aug-17 11:18N 34°54' E 119°51'412.4
2017-Aug-17 11:00N 34°56' E 119°55'1112.1
2017-Aug-17 10:04N 35°00' E 120°07'211.9
2017-Aug-17 09:56N 35°01' E 120°09'611.8
2017-Aug-17 09:26N 35°04' E 120°15'512.4
2017-Aug-17 09:00N 35°06' E 120°21'  
2017-Aug-13 19:09N 29°50' E 122°47'819.2
2017-Aug-13 18:44N 29°45' E 122°40'519.4
2017-Aug-13 18:30N 29°42' E 122°36'917.4
2017-Aug-13 18:00N 29°42' E 122°26'816.6
2017-Aug-13 17:30N 29°46' E 122°18'510.1
2017-Aug-13 17:00N 29°49' E 122°14'713.8
2017-Aug-13 16:30N 29°55' E 122°09'5 9.8
2017-Aug-13 16:00N 29°53' E 122°04'0 0.2
2017-Aug-13 15:30N 29°53' E 122°04'0 0.0
2017-Aug-13 15:00N 29°53' E 122°04'0 0.0
2017-Aug-13 14:30N 29°53' E 122°04'0 0.0
2017-Aug-13 13:48N 29°53' E 122°04'0 0.0
2017-Aug-13 13:18N 29°53' E 122°04'0 0.0
2017-Aug-13 12:18N 29°53' E 122°04'0 0.0
2017-Aug-13 11:57N 29°53' E 122°04'0 0.0
2017-Aug-13 11:24N 29°53' E 122°04'0 0.0
2017-Aug-13 11:00N 29°53' E 122°04'0 0.0
2017-Aug-13 10:12N 29°53' E 122°04'0 0.0
2017-Aug-13 09:54N 29°53' E 122°04'0 0.0
2017-Aug-13 09:27N 29°53' E 122°04'0 0.0
2017-Aug-13 09:00N 29°53' E 122°04'0 0.0
2017-Aug-13 08:24N 29°53' E 122°04'0 0.0
2017-Aug-13 07:57N 29°53' E 122°04'0 0.0
2017-Aug-13 07:30N 29°53' E 122°04'0 0.0
2017-Aug-13 06:48N 29°53' E 122°04'0 0.0
2017-Aug-13 06:30N 29°53' E 122°04'0 0.0
2017-Aug-13 06:00N 29°53' E 122°04'0 0.0
2017-Aug-13 04:24N 29°53' E 122°04'0 0.0
2017-Aug-13 04:00N 29°53' E 122°04'0 0.0
2017-Aug-13 03:29N 29°53' E 122°04'0 0.0
2017-Aug-13 03:00N 29°53' E 122°04'0 0.0
2017-Aug-13 02:30N 29°53' E 122°04'0 0.0
2017-Aug-13 02:01N 29°53' E 122°04'1 1.9
2017-Aug-13 01:30N 29°54' E 122°04'611.7
2017-Aug-13 01:00N 29°55' E 122°10'713.5
2017-Aug-13 00:30N 29°49' E 122°14'5 9.9
2017-Aug-12 23:59N 29°46' E 122°18'510.5
2017-Aug-12 23:30N 29°44' E 122°24'713.2
2017-Aug-12 22:59N 29°42' E 122°31'5814.6
2017-Aug-12 19:00N 30°24' E 123°18'816.6
2017-Aug-12 18:30N 30°31' E 123°21'915.9
2017-Aug-12 17:56N 30°41' E 123°21'1215.6
2017-Aug-12 17:10N 30°52' E 123°20'416.3
2017-Aug-12 16:56N 30°56' E 123°20'29314.3
2017-Aug-11 20:28N 34°57' E 120°01'32 5.8
2017-Aug-11 14:59N 34°45' E 119°26'0 0.1
2017-Aug-11 14:30N 34°45' E 119°26'0 0.0
2017-Aug-11 13:30N 34°45' E 119°26'0 0.0
2017-Aug-11 13:00N 34°45' E 119°26'0 0.1
2017-Aug-11 12:30N 34°45' E 119°26'0 0.0
2017-Aug-11 11:59N 34°45' E 119°26'0 0.1
2017-Aug-11 11:29N 34°45' E 119°26'0 0.1
2017-Aug-11 11:00N 34°45' E 119°26'0 0.1
2017-Aug-11 10:29N 34°45' E 119°26'0 0.0
2017-Aug-11 10:00N 34°45' E 119°26'0 0.0
2017-Aug-11 09:30N 34°45' E 119°26'0 0.1
2017-Aug-11 09:00N 34°45' E 119°26'0 0.0
2017-Aug-11 08:30N 34°45' E 119°26'1 2.1
2017-Aug-11 07:57N 34°45' E 119°27'4 8.6
2017-Aug-11 07:30N 34°45' E 119°32'510.2
2017-Aug-11 07:00N 34°47' E 119°37'4 8.5
2017-Aug-11 06:30N 34°49' E 119°41'712.9
2017-Aug-11 06:00N 34°53' E 119°48'2 2.6
2017-Aug-11 05:04N 34°54' E 119°50'0 0.1
2017-Aug-11 02:52N 34°54' E 119°50'0 0.0
2017-Aug-11 02:28N 34°54' E 119°50'0 0.1
2017-Aug-11 00:17N 34°54' E 119°50'0 0.2
2017-Aug-10 23:59N 34°54' E 119°50'0 0.1
2017-Aug-10 23:29N 34°54' E 119°50'0 0.0
2017-Aug-10 22:59N 34°54' E 119°50'0 0.1
2017-Aug-10 21:05N 34°54' E 119°50'0 0.1
2017-Aug-10 20:59N 34°54' E 119°50'0 0.5
2017-Aug-10 20:04N 34°55' E 119°50'110.3
2017-Aug-10 20:00N 34°55' E 119°51'612.6
2017-Aug-10 19:30N 34°56' E 119°58'912.4
2017-Aug-10 18:46N 35°01' E 120°08'912.0
2017-Aug-10 18:02N 35°05' E 120°17'010.6
2017-Aug-10 18:00N 35°05' E 120°18'  

Dump ship's entire track history